Time;durP1;ratioP1;P1;durP2;ratioP2;P2;SDS_P1;SDS_P2;PMS_P1;PMS_P2;Temp;Humidity;BMP_temperature;BMP_pressure;BME280_temperature;BME280_humidity;BME280_pressure;Samples;Min_cycle;Max_cycle;Signal;HPM_P1;HPM_P2
2022/06/08 04:47:45;;;;;;;20.95;11.00;;;;;;;19.43;100.00;99654.88;5091192;28;20267;-67
2022/06/08 04:50:12;;;;;;;19.58;12.95;;;;;;;19.85;100.00;99687.94;5087302;28;20057;-68
2022/06/08 04:52:38;;;;;;;14.35;10.57;;;;;;;20.04;100.00;99680.56;5088025;28;20418;-68
2022/06/08 04:55:06;;;;;;;27.05;18.02;;;;;;;19.77;100.00;99659.28;5087073;28;20029;-68
2022/06/08 04:57:34;;;;;;;19.08;11.90;;;;;;;19.79;100.00;99637.63;5088466;28;20486;-68
2022/06/08 05:00:00;;;;;;;14.90;10.35;;;;;;;19.91;100.00;99658.34;5087217;28;20473;-68
2022/06/08 05:02:44;;;;;;;12.63;9.88;;;;;;;20.20;100.00;99696.66;5088617;28;20055;-68
2022/06/08 05:05:13;;;;;;;15.43;8.98;;;;;;;20.51;100.00;99700.41;5088470;28;20535;-67
2022/06/08 05:07:39;;;;;;;13.77;10.38;;;;;;;20.51;100.00;99701.22;5086859;28;20490;-68
2022/06/08 05:10:07;;;;;;;13.68;11.48;;;;;;;20.61;100.00;99685.88;5088528;28;20036;-68
2022/06/08 05:12:33;;;;;;;11.63;9.93;;;;;;;20.35;100.00;99669.69;5088258;28;20020;-68
2022/06/08 05:14:58;;;;;;;11.38;10.00;;;;;;;21.00;100.00;99705.31;5088284;28;20413;-68
2022/06/08 05:17:24;;;;;;;12.90;9.13;;;;;;;20.87;100.00;99696.84;5088388;28;20064;-68
2022/06/08 05:19:50;;;;;;;13.68;8.50;;;;;;;20.88;100.00;99670.09;5088258;28;20028;-67
2022/06/08 05:22:15;;;;;;;11.07;8.57;;;;;;;21.44;100.00;99669.19;5088075;28;20034;-69
2022/06/08 05:24:41;;;;;;;10.13;7.82;;;;;;;21.79;100.00;99706.06;5086735;28;20051;-68
2022/06/08 05:27:06;;;;;;;8.93;7.50;;;;;;;20.51;100.00;99670.22;5086745;28;20500;-68
2022/06/08 05:29:32;;;;;;;8.43;7.22;;;;;;;21.13;100.00;99712.09;5087624;28;20020;-69
2022/06/08 05:31:58;;;;;;;8.48;6.95;;;;;;;21.26;100.00;99710.22;5086655;28;20032;-69
2022/06/08 05:34:24;;;;;;;12.07;7.60;;;;;;;21.84;100.00;99698.81;5088090;28;20425;-69
2022/06/08 05:36:49;;;;;;;8.63;7.40;;;;;;;22.00;100.00;99713.94;5087893;28;20383;-68
2022/06/08 05:39:15;;;;;;;8.40;7.50;;;;;;;21.85;100.00;99692.66;5087733;28;20035;-69
2022/06/08 05:41:41;;;;;;;11.52;7.43;;;;;;;21.82;100.00;99686.91;5087734;28;20036;-68
2022/06/08 05:44:06;;;;;;;9.02;7.13;;;;;;;22.13;100.00;99712.84;5086367;28;20028;-68
2022/06/08 05:46:32;;;;;;;7.50;6.80;;;;;;;22.00;100.00;99704.41;5097962;28;20425;-68
2022/06/08 05:48:58;;;;;;;8.07;5.40;;;;;;;21.80;100.00;99668.06;5108078;28;20456;-68
2022/06/08 05:51:23;;;;;;;8.27;5.70;;;;;;;22.25;100.00;99709.28;5089633;28;20459;-78
2022/06/08 05:53:49;;;;;;;6.45;5.43;;;;;;;22.31;100.00;99711.38;5108098;28;20024;-69
2022/06/08 05:56:14;;;;;;;6.07;5.20;;;;;;;22.18;100.00;99674.47;5107895;28;20160;-68
2022/06/08 05:58:40;;;;;;;6.20;5.03;;;;;;;22.47;100.00;99703.19;5096826;28;20024;-68
2022/06/08 06:01:05;;;;;;;12.77;5.15;;;;;;;22.44;100.00;99678.34;5094479;28;20445;-68
2022/06/08 06:03:30;;;;;;;7.13;5.25;;;;;;;22.94;100.00;99699.28;5076392;28;20032;-69
2022/06/08 06:05:57;;;;;;;7.82;4.38;;;;;;;22.81;100.00;99659.78;5094185;28;20379;-69
2022/06/08 06:08:24;;;;;;;6.78;4.85;;;;;;;22.68;100.00;99646.22;5075989;28;20024;-68
2022/06/08 06:10:50;;;;;;;5.97;4.55;;;;;;;23.50;100.00;99710.13;5076169;28;20093;-68
2022/06/08 06:13:18;;;;;;;6.30;4.80;;;;;;;23.64;100.00;99683.78;5093885;28;20032;-68
2022/06/08 06:15:44;;;;;;;4.53;3.90;;;;;;;23.56;100.00;99700.03;5094224;28;20032;-68
2022/06/08 06:18:09;;;;;;;5.78;3.78;;;;;;;23.14;100.00;99698.44;5094179;28;20431;-68
2022/06/08 06:20:35;;;;;;;4.32;3.50;;;;;;;23.47;100.00;99700.84;5075422;28;20028;-71
2022/06/08 06:23:00;;;;;;;6.47;3.97;;;;;;;23.75;100.00;99686.28;5093255;28;20027;-68
2022/06/08 06:25:26;;;;;;;5.90;3.50;;;;;;;24.12;100.00;99676.13;5075436;28;20466;-68
2022/06/08 06:27:51;;;;;;;6.80;4.40;;;;;;;23.62;100.00;99641.56;5093506;28;20028;-68
2022/06/08 06:30:17;;;;;;;6.47;3.95;;;;;;;24.03;100.00;99695.91;5093653;28;20031;-68
2022/06/08 06:32:45;;;;;;;4.35;3.53;;;;;;;24.60;100.00;99695.13;5075166;28;20111;-68
2022/06/08 06:35:29;;;;;;;9.35;4.38;;;;;;;23.67;100.00;99699.13;5093094;28;20034;-68
2022/06/08 06:37:55;;;;;;;22.92;4.60;;;;;;;24.16;100.00;99682.69;5075143;28;20063;-68
2022/06/08 06:40:21;;;;;;;8.63;4.30;;;;;;;24.35;100.00;99683.50;5075277;28;20465;-69
2022/06/08 06:42:47;;;;;;;4.80;3.83;;;;;;;24.05;100.00;99649.84;5074914;28;20032;-68
2022/06/08 06:45:14;;;;;;;6.80;3.90;;;;;;;24.18;100.00;99613.22;5074934;28;20020;-68
2022/06/08 06:47:39;;;;;;;14.60;4.13;;;;;;;24.47;100.00;99677.19;5074669;28;20044;-68
2022/06/08 06:50:07;;;;;;;7.25;3.92;;;;;;;24.18;100.00;99619.22;5075003;28;20036;-68
2022/06/08 06:52:33;;;;;;;8.75;4.32;;;;;;;24.60;100.00;99674.31;5074825;28;20032;-69
2022/06/08 06:54:58;;;;;;;13.68;5.05;;;;;;;24.82;100.00;99641.03;5074780;28;20035;-69
2022/06/08 06:57:24;;;;;;;6.75;4.10;;;;;;;24.79;100.00;99671.72;5092988;28;20055;-68
2022/06/08 06:59:50;;;;;;;5.03;4.35;;;;;;;24.96;100.00;99678.78;5074757;28;20027;-68
2022/06/08 07:02:21;;;;;;;8.60;4.60;;;;;;;24.88;100.00;99676.88;5092848;28;20173;-69
2022/06/08 07:04:47;;;;;;;38.33;5.45;;;;;;;24.81;100.00;99648.97;5074670;28;20016;-68
2022/06/08 07:07:14;;;;;;;16.85;4.40;;;;;;;25.49;100.00;99648.56;5074562;28;20058;-68
2022/06/08 07:09:43;;;;;;;12.88;4.65;;;;;;;25.75;100.00;99666.97;5073518;28;20032;-68
2022/06/08 07:12:12;;;;;;;5.90;3.90;;;;;;;24.61;100.00;99642.97;5092439;28;20024;-69
2022/06/08 07:14:38;;;;;;;6.63;4.05;;;;;;;24.97;100.00;99637.97;5092672;28;20546;-69
2022/06/08 07:17:04;;;;;;;6.68;3.50;;;;;;;25.48;100.00;99646.94;5074472;28;20169;-68
2022/06/08 07:19:29;;;;;;;4.70;3.60;;;;;;;25.67;100.00;99631.19;5092432;28;20059;-68
2022/06/08 07:21:55;;;;;;;6.25;3.63;;;;;;;25.48;100.00;99662.56;5074483;28;20032;-68
2022/06/08 07:24:30;;;;;;;6.15;3.55;;;;;;;24.90;100.00;99661.13;5074397;28;20123;-69
2022/06/08 07:26:55;;;;;;;6.18;3.72;;;;;;;;;;5073928;28;20039;-68
2022/06/08 07:29:21;;;;;;;10.88;4.38;;;;;;;25.08;100.00;99662.03;5074124;28;20031;-69
2022/06/08 07:31:46;;;;;;;15.15;4.53;;;;;;;25.03;100.00;99608.78;5073747;28;20107;-68
2022/06/08 07:34:14;;;;;;;7.65;3.60;;;;;;;25.58;100.00;99655.53;5092199;28;20024;-68
2022/06/08 07:36:40;;;;;;;4.30;3.90;;;;;;;24.51;100.00;99638.75;5091829;28;20043;-70
2022/06/08 07:39:06;;;;;;;5.07;3.75;;;;;;;24.38;100.00;99607.88;5092479;28;20032;-69
2022/06/08 07:41:31;;;;;;;5.78;3.40;;;;;;;24.92;100.00;99641.81;5092322;28;20038;-68
2022/06/08 07:43:57;;;;;;;6.97;3.70;;;;;;;24.60;100.00;99614.53;5073385;28;20028;-69
2022/06/08 07:46:22;;;;;;;5.93;3.47;;;;;;;23.98;100.00;99584.63;5073592;28;20109;-68
2022/06/08 07:51:33;;;;;;;4.90;3.80;;;;;;;23.56;100.00;99610.94;5091972;28;20051;-69
2022/06/08 07:53:59;;;;;;;6.82;4.50;;;;;;;24.95;100.00;99583.50;5074059;28;20031;-68
2022/06/08 07:56:25;;;;;;;19.05;4.78;;;;;;;24.63;100.00;99629.81;5092026;28;20039;-71
2022/06/08 07:58:50;;;;;;;10.80;4.40;;;;;;;24.07;100.00;99638.38;5073445;28;20032;-69
2022/06/08 08:01:16;;;;;;;7.05;4.10;;;;;;;23.47;100.00;99642.91;5091742;28;20035;-69
2022/06/08 08:03:41;;;;;;;14.77;4.88;;;;;;;23.64;100.00;99606.72;5091591;28;20031;-68
2022/06/08 08:06:07;;;;;;;6.95;4.25;;;;;;;24.11;100.00;99641.50;5092001;28;20497;-69
2022/06/08 08:08:33;;;;;;;8.25;4.30;;;;;;;24.21;100.00;99618.94;5091750;28;20035;-68
2022/06/08 08:10:59;;;;;;;9.25;3.95;;;;;;;23.96;100.00;99640.25;5073238;28;20108;-69
2022/06/08 08:13:24;;;;;;;7.10;3.88;;;;;;;24.69;100.00;99593.69;5091446;28;20135;-68
2022/06/08 08:15:51;;;;;;;8.68;4.00;;;;;;;25.97;100.00;99637.06;5073167;28;20031;-69
2022/06/08 08:18:17;;;;;;;6.72;4.60;;;;;;;26.06;100.00;99581.41;5091621;28;20039;-68
2022/06/08 08:20:43;;;;;;;9.30;4.20;;;;;;;25.51;100.00;99604.97;5072887;28;20024;-68
2022/06/08 08:23:08;;;;;;;8.50;3.50;;;;;;;25.52;100.00;99616.22;5091436;28;20070;-69
2022/06/08 08:25:35;;;;;;;8.07;3.70;;;;;;;26.03;100.00;99619.00;5091164;28;20021;-69
2022/06/08 08:28:01;;;;;;;6.88;3.97;;;;;;;26.49;99.63;99594.47;5091535;28;20027;-68
2022/06/08 08:30:29;;;;;;;35.05;5.10;;;;;;;26.59;94.43;99582.13;5073240;28;20028;-68
2022/06/08 08:32:55;;;;;;;5.75;3.20;;;;;;;26.91;89.67;99605.81;5090876;28;20090;-70
2022/06/08 08:35:23;;;;;;;9.13;4.30;;;;;;;26.58;94.44;99630.06;5091077;28;20040;-68
2022/06/08 08:37:49;;;;;;;5.38;3.85;;;;;;;26.41;97.45;99592.63;5091339;28;20632;-68
2022/06/08 08:40:38;;;;;;;4.68;3.10;;;;;;;26.74;94.70;99627.56;5073050;28;20640;-77
2022/06/08 08:43:08;;;;;;;4.25;3.60;;;;;;;25.64;100.00;99599.44;5091212;28;20034;-68
2022/06/08 08:45:44;;;;;;;5.07;3.42;;;;;;;25.67;100.00;99626.00;5090986;28;20028;-69
2022/06/08 08:48:19;;;;;;;4.88;3.33;;;;;;;25.83;99.77;99588.06;5072925;28;20057;-69
2022/06/08 08:50:58;;;;;;;4.32;3.10;;;;;;;26.35;95.06;99623.69;5073046;28;20061;-69
2022/06/08 08:53:38;;;;;;;3.85;3.15;;;;;;;27.23;89.50;99598.13;5091396;28;20035;-68
2022/06/08 08:56:14;;;;;;;5.57;3.25;;;;;;;26.83;89.11;99571.88;5073384;28;20055;-68
2022/06/08 08:58:42;;;;;;;6.03;3.35;;;;;;;26.98;94.60;99606.81;5091378;28;20039;-68
2022/06/08 09:01:20;;;;;;;5.72;3.25;;;;;;;26.17;98.03;99594.22;5073167;28;20051;-70
2022/06/08 09:03:54;;;;;;;5.60;3.38;;;;;;;26.41;100.00;99617.88;5091187;28;20039;-68
2022/06/08 09:06:26;;;;;;;6.22;3.60;;;;;;;27.36;97.98;99616.81;5090921;28;20058;-68
2022/06/08 09:08:54;;;;;;;3.33;2.97;;;;;;;26.03;97.86;99582.53;5091126;28;20032;-69
2022/06/08 09:11:29;;;;;;;4.95;3.10;;;;;;;26.81;95.07;99588.63;5090680;28;20510;-69
2022/06/08 09:14:05;;;;;;;3.80;3.10;;;;;;;27.09;93.92;99584.84;5072840;28;20133;-69
2022/06/08 09:16:39;;;;;;;7.70;3.60;;;;;;;27.87;89.41;99609.75;5091056;28;20039;-72
2022/06/08 09:19:23;;;;;;;4.43;3.40;;;;;;;27.08;93.17;99610.13;5091014;28;20052;-68
2022/06/08 09:21:55;;;;;;;4.90;3.92;;;;;;;27.07;93.92;99585.03;5072543;28;20470;-68
2022/06/08 09:24:20;;;;;;;7.63;4.55;;;;;;;27.23;100.00;99619.03;5090970;28;20036;-68
2022/06/08 09:26:47;;;;;;;7.95;4.55;;;;;;;26.72;100.00;99611.25;5090802;28;20105;-68
2022/06/08 09:29:26;;;;;;;7.63;4.03;;;;;;;25.58;100.00;99615.63;5090815;28;20035;-68
2022/06/08 09:31:52;;;;;;;6.93;4.00;;;;;;;25.18;100.00;99591.72;5090980;28;20032;-68
2022/06/08 09:34:34;;;;;;;5.72;3.92;;;;;;;25.58;100.00;99619.06;5094097;28;20035;-68
2022/06/08 09:37:26;;;;;;;4.53;3.90;;;;;;;25.55;100.00;99588.09;5094683;28;20028;-67
2022/06/08 09:39:54;;;;;;;5.25;3.45;;;;;;;25.56;100.00;99604.56;5076290;28;20032;-68
2022/06/08 09:43:01;;;;;;;5.03;4.20;;;;;;;25.02;100.00;99625.38;5076313;28;20028;-68
2022/06/08 09:45:53;;;;;;;7.13;4.78;;;;;;;24.57;100.00;99626.00;5086691;28;20043;-67
2022/06/08 09:51:43;;;;;;;9.13;4.47;;;;;;;24.20;100.00;99624.28;5074134;28;20043;-70
2022/06/08 09:54:20;;;;;;;10.07;4.60;;;;;;;24.63;100.00;99624.63;5074307;28;20035;-69
2022/06/08 09:57:28;;;;;;;6.25;3.88;;;;;;;24.34;100.00;99634.25;5074055;28;20438;-70
2022/06/08 10:00:07;;;;;;;8.43;4.63;;;;;;;24.30;100.00;99638.94;5055882;28;20378;-68
2022/06/08 10:02:44;;;;;;;7.68;4.70;;;;;;;24.04;100.00;99591.91;5073812;28;20024;-68
2022/06/08 10:05:29;;;;;;;15.32;5.07;;;;;;;23.87;100.00;99623.69;5074212;28;20051;-68
2022/06/08 10:08:03;;;;;;;13.77;4.57;;;;;;;24.58;100.00;99626.84;5055471;28;20127;-68
2022/06/08 10:10:42;;;;;;;17.48;4.82;;;;;;;23.92;100.00;99582.56;5073494;28;20085;-68
2022/06/08 10:13:20;;;;;;;11.40;4.45;;;;;;;24.72;100.00;99624.63;5073434;28;20028;-68
2022/06/08 10:15:50;;;;;;;9.18;3.83;;;;;;;24.51;100.00;99600.56;5073690;28;20046;-68
2022/06/08 10:18:24;;;;;;;11.15;3.58;;;;;;;24.89;100.00;99610.91;5073415;28;20443;-69
2022/06/08 10:20:59;;;;;;;8.05;3.90;;;;;;;25.12;100.00;99581.88;5055663;28;20028;-68
2022/06/08 10:23:47;;;;;;;26.05;4.22;;;;;;;24.87;100.00;99610.22;5073559;28;20048;-67
2022/06/08 10:26:12;;;;;;;9.77;3.63;;;;;;;24.72;100.00;99622.03;5055485;28;20039;-68
2022/06/08 10:28:44;;;;;;;4.57;3.17;;;;;;;25.25;100.00;99617.03;5055028;28;20483;-68
2022/06/08 10:31:29;;;;;;;9.07;3.53;;;;;;;25.03;100.00;99607.00;5073678;28;20029;-70
2022/06/08 10:34:03;;;;;;;7.75;3.35;;;;;;;25.16;100.00;99612.69;5055281;28;20052;-68
2022/06/08 10:36:31;;;;;;;14.40;4.68;;;;;;;24.87;100.00;99576.41;5073321;28;20554;-70
2022/06/08 10:39:00;;;;;;;5.55;3.45;;;;;;;24.70;100.00;99578.91;5073211;28;20047;-68
2022/06/08 10:44:44;;;;;;;5.15;3.53;;;;;;;25.83;100.00;99607.09;5072769;28;20055;-68
2022/06/08 10:47:12;;;;;;;21.33;4.13;;;;;;;25.79;100.00;99598.75;5073109;28;20045;-67
2022/06/08 10:49:37;;;;;;;16.02;4.25;;;;;;;25.61;100.00;99592.72;5073105;28;20070;-68
2022/06/08 10:52:18;;;;;;;13.90;3.20;;;;;;;25.81;100.00;99603.03;5072447;28;20036;-68
2022/06/08 10:55:05;;;;;;;14.13;3.83;;;;;;;25.27;100.00;99604.69;5073006;28;20036;-68
2022/06/08 10:57:40;;;;;;;12.02;3.30;;;;;;;25.09;100.00;99605.59;5071055;28;21046;-68
2022/06/08 11:00:18;;;;;;;17.52;3.67;;;;;;;24.55;100.00;99609.72;5072900;28;20406;-68
2022/06/08 11:02:48;;;;;;;26.42;4.68;;;;;;;24.52;100.00;99568.41;5072886;28;20107;-68
2022/06/08 11:05:28;;;;;;;10.95;3.25;;;;;;;24.10;100.00;99613.91;5072999;28;20021;-68
2022/06/08 11:08:06;;;;;;;11.38;2.97;;;;;;;24.64;100.00;99597.69;5054431;28;20025;-68
2022/06/08 11:10:53;;;;;;;19.92;4.05;;;;;;;24.25;100.00;99603.88;5072600;28;20082;-68
2022/06/08 11:13:22;;;;;;;4.40;2.90;;;;;;;24.58;100.00;99606.84;5072632;28;20029;-69
2022/06/08 11:15:59;;;;;;;12.50;3.60;;;;;;;24.50;100.00;99592.91;5072567;28;20483;-78
2022/06/08 11:18:28;;;;;;;26.45;5.10;;;;;;;24.04;100.00;99589.28;5054117;28;20093;-68
2022/06/08 11:21:21;;;;;;;6.82;3.20;;;;;;;24.22;100.00;99588.59;5072357;28;20060;-72
2022/06/08 11:24:00;;;;;;;16.50;3.78;;;;;;;24.67;100.00;99590.41;5054337;28;20085;-68
2022/06/08 11:26:37;;;;;;;24.20;4.55;;;;;;;24.92;100.00;99588.97;5072189;28;20035;-68
2022/06/08 11:29:17;;;;;;;6.22;3.20;;;;;;;25.20;100.00;99593.22;5071946;28;20100;-68
2022/06/08 11:31:42;;;;;;;23.52;4.53;;;;;;;25.79;100.00;99580.53;5072148;28;20035;-67
2022/06/08 11:34:20;;;;;;;9.93;3.55;;;;;;;26.22;100.00;99586.78;5072209;28;20469;-68
2022/06/08 11:37:06;;;;;;;4.75;3.10;;;;;;;25.70;100.00;99581.44;5054103;28;20078;-70
2022/06/08 11:39:51;;;;;;;4.15;2.75;;;;;;;25.95;98.96;99579.03;5053790;28;20063;-67
2022/06/08 11:42:24;;;;;;;14.23;3.00;;;;;;;25.67;100.00;99575.72;5072095;28;20028;-68
2022/06/08 11:45:13;;;;;;;2.75;2.35;;;;;;;26.20;100.00;99568.69;5053976;28;20446;-78
2022/06/08 11:48:00;;;;;;;3.80;2.65;;;;;;;26.34;94.58;99573.34;5071952;28;20056;-69
2022/06/08 11:50:48;;;;;;;3.35;2.80;;;;;;;26.88;96.69;99566.97;5071668;28;20039;-68
2022/06/08 11:53:25;;;;;;;24.25;3.97;;;;;;;26.25;100.00;99569.03;5071768;28;20173;-68
2022/06/08 11:56:02;;;;;;;6.85;3.10;;;;;;;25.69;100.00;99571.16;5053084;28;20089;-77
2022/06/08 11:58:30;;;;;;;5.60;3.50;;;;;;;25.18;100.00;99583.91;5071439;28;20028;-68
2022/06/08 12:01:00;;;;;;;4.80;2.58;;;;;;;25.56;100.00;99552.47;5071176;28;20040;-68
2022/06/08 12:03:38;;;;;;;5.35;2.97;;;;;;;25.47;100.00;99553.38;5071937;28;20570;-68
2022/06/08 12:06:14;;;;;;;4.20;2.85;;;;;;;25.59;100.00;99581.63;5053604;28;20601;-68
2022/06/08 12:08:44;;;;;;;4.50;2.97;;;;;;;24.89;100.00;99550.25;5071511;28;20027;-69
2022/06/08 12:11:15;;;;;;;3.53;3.17;;;;;;;24.56;100.00;99553.34;5071395;28;20111;-68
2022/06/08 12:13:55;;;;;;;5.07;2.80;;;;;;;24.42;100.00;99574.59;5071104;28;20047;-68
2022/06/08 12:16:34;;;;;;;5.20;2.85;;;;;;;24.26;100.00;99567.38;5071546;28;20028;-68
2022/06/08 12:19:04;;;;;;;6.53;2.90;;;;;;;24.71;100.00;99603.94;5053143;28;20028;-68
2022/06/08 12:21:36;;;;;;;25.57;4.07;;;;;;;23.85;100.00;99573.66;5053304;28;20552;-68
2022/06/08 12:24:07;;;;;;;8.50;3.78;;;;;;;24.15;100.00;99590.06;5053330;28;20029;-68
2022/06/08 12:27:22;;;;;;;21.10;4.53;;;;;;;24.23;100.00;99592.81;5051160;28;20028;-68
2022/06/08 12:29:55;;;;;;;5.32;3.10;;;;;;;23.62;100.00;99572.28;5067204;28;20047;-68
2022/06/08 12:32:36;;;;;;;13.40;3.35;;;;;;;24.22;100.00;99573.00;5071367;28;20482;-67
2022/06/08 12:35:05;;;;;;;9.25;3.03;;;;;;;24.67;100.00;99597.38;5053109;28;20025;-68
2022/06/08 12:37:40;;;;;;;3.58;2.58;;;;;;;23.37;100.00;99552.06;5071450;28;20035;-68
2022/06/08 12:40:15;;;;;;;16.05;3.40;;;;;;;23.72;100.00;99586.09;5071006;28;20178;-69
2022/06/08 12:42:52;;;;;;;11.48;3.45;;;;;;;24.31;100.00;99588.56;5071054;28;20055;-68
2022/06/08 12:45:30;;;;;;;22.75;3.53;;;;;;;23.64;100.00;99574.75;5070952;28;20036;-69
2022/06/08 12:48:32;;;;;;;7.10;2.55;;;;;;;23.69;100.00;99575.97;5071462;28;20032;-68
2022/06/08 12:50:58;;;;;;;12.52;3.05;;;;;;;23.74;100.00;99541.81;5071130;28;20029;-68
2022/06/08 12:53:24;;;;;;;13.88;3.58;;;;;;;23.86;100.00;99540.72;5071150;28;20032;-68
2022/06/08 12:55:54;;;;;;;5.82;3.08;;;;;;;23.85;100.00;99559.84;5071011;28;20032;-68
2022/06/08 12:58:22;;;;;;;8.15;3.25;;;;;;;23.99;100.00;99562.88;5053221;28;20036;-68
2022/06/08 13:00:53;;;;;;;3.47;2.80;;;;;;;23.48;100.00;99551.91;5070853;28;20020;-68
2022/06/08 13:03:24;;;;;;;12.13;2.60;;;;;;;23.73;100.00;99561.75;5070914;28;20052;-68
2022/06/08 13:05:50;;;;;;;29.48;3.90;;;;;;;23.71;100.00;99529.13;5070790;28;20083;-68
2022/06/08 13:08:20;;;;;;;17.45;4.15;;;;;;;24.01;100.00;99537.56;5072324;28;20048;-69
2022/06/08 13:10:48;;;;;;;8.45;2.92;;;;;;;23.40;100.00;99543.97;5056650;28;20033;-68
2022/06/08 13:13:25;;;;;;;14.52;4.00;;;;;;;23.75;100.00;99507.91;5074711;28;20032;-69
2022/06/08 13:15:53;;;;;;;33.92;5.10;;;;;;;23.93;100.00;99542.63;5075136;28;20127;-68
2022/06/08 13:18:24;;;;;;;23.45;4.65;;;;;;;24.27;100.00;99506.63;5056669;28;20097;-68
2022/06/08 13:20:55;;;;;;;52.17;5.13;;;;;;;24.28;100.00;99523.06;5074185;28;20031;-68
2022/06/08 13:23:21;;;;;;;23.98;4.20;;;;;;;24.28;100.00;99505.69;5056366;28;20438;-68
2022/06/08 13:25:49;;;;;;;12.35;3.33;;;;;;;25.24;100.00;99506.06;5074240;28;20035;-68
2022/06/08 13:28:23;;;;;;;23.20;4.90;;;;;;;24.35;100.00;99517.16;5074075;28;20490;-68
2022/06/08 13:30:51;;;;;;;47.72;5.47;;;;;;;24.78;100.00;99509.63;5074320;28;20036;-68
2022/06/08 13:36:10;;;;;;;23.02;3.78;;;;;;;25.09;100.00;99522.34;5074355;28;20043;-69
2022/06/08 13:38:36;;;;;;;6.30;2.70;;;;;;;24.74;100.00;99510.06;5074066;28;20108;-69
2022/06/08 13:41:03;;;;;;;9.50;3.10;;;;;;;24.44;100.00;99490.31;5055929;28;20471;-69
2022/06/08 13:43:29;;;;;;;3.55;2.97;;;;;;;24.18;100.00;99499.69;5074139;28;20063;-69
2022/06/08 13:45:55;;;;;;;59.28;6.30;;;;;;;24.69;100.00;99502.66;5056018;28;20133;-69
2022/06/08 13:48:21;;;;;;;57.53;5.88;;;;;;;24.98;100.00;99531.16;5074103;28;20035;-69
2022/06/08 13:50:49;;;;;;;11.35;3.13;;;;;;;24.07;100.00;99529.25;5072825;28;20028;-69
2022/06/08 13:53:19;;;;;;;16.02;3.20;;;;;;;24.21;100.00;99508.97;5056118;28;20467;-69
2022/06/08 13:55:49;;;;;;;113.43;9.20;;;;;;;24.42;100.00;99533.00;5074047;28;20029;-70
2022/06/08 13:58:17;;;;;;;28.85;4.05;;;;;;;24.53;100.00;99532.81;5073935;28;20059;-69
2022/06/08 14:00:54;;;;;;;25.73;4.55;;;;;;;24.65;100.00;99518.69;5055959;28;20036;-68
2022/06/08 14:03:39;;;;;;;15.95;3.47;;;;;;;24.54;100.00;99483.28;5073429;28;20060;-69
2022/06/08 14:14:21;;;;;;;3.63;2.78;;;;;;;25.28;100.00;99509.19;5073741;28;20502;-68
2022/06/08 14:16:54;;;;;;;13.10;2.88;;;;;;;26.18;100.00;99504.63;5073713;28;20513;-68
2022/06/08 14:19:30;;;;;;;5.18;2.47;;;;;;;25.30;100.00;99474.25;5055198;28;20055;-68
2022/06/08 14:21:57;;;;;;;5.65;2.90;;;;;;;26.25;100.00;99500.44;5055297;28;20120;-68
2022/06/08 14:24:28;;;;;;;2.88;2.33;;;;;;;25.52;100.00;99504.25;5055352;28;20056;-68
2022/06/08 14:26:54;;;;;;;;;;;;;;;25.30;100.00;99509.84;5055836;28;20043;-68
2022/06/08 14:29:20;;;;;;;7.25;3.20;;;;;;;25.67;100.00;99492.34;5073382;28;20002;-68
2022/06/08 14:31:47;;;;;;;6.55;2.50;;;;;;;25.24;100.00;99511.28;5073281;28;20094;-68
2022/06/08 14:34:24;;;;;;;5.00;2.47;;;;;;;25.23;100.00;99512.25;5073337;28;20513;-68
2022/06/08 14:36:51;;;;;;;6.20;2.75;;;;;;;24.30;100.00;99484.75;5055295;28;20468;-69
2022/06/08 14:39:20;;;;;;;9.60;2.60;;;;;;;24.39;100.00;99522.88;5055220;28;20036;-67
2022/06/08 14:41:46;;;;;;;4.70;2.60;;;;;;;24.66;100.00;99520.34;5073324;28;20036;-68
2022/06/08 14:44:19;;;;;;;4.55;2.40;;;;;;;25.19;100.00;99504.88;5055077;28;20635;-68
2022/06/08 14:46:51;;;;;;;5.15;2.30;;;;;;;25.18;100.00;99518.84;5072670;28;20037;-69
2022/06/08 14:49:21;;;;;;;2.70;2.22;;;;;;;24.83;100.00;99481.41;5073146;28;20024;-68
2022/06/08 14:51:46;;;;;;;2.53;2.00;;;;;;;24.47;100.00;99453.63;5054744;28;20194;-68
2022/06/08 14:54:24;;;;;;;4.25;2.50;;;;;;;24.45;100.00;99506.72;5072847;28;20033;-69
2022/06/08 14:57:02;;;;;;;4.85;2.00;;;;;;;24.47;100.00;99510.00;5072702;28;20505;-68
2022/06/08 14:59:30;;;;;;;3.97;2.30;;;;;;;24.17;100.00;99468.63;5072806;28;20033;-68
2022/06/08 15:01:56;;;;;;;4.75;2.10;;;;;;;24.28;100.00;99504.88;5072768;28;20033;-68
2022/06/08 15:04:24;;;;;;;2.97;2.00;;;;;;;24.14;100.00;99508.72;5072898;28;20043;-68
2022/06/08 15:06:50;;;;;;;3.58;2.05;;;;;;;23.57;100.00;99512.16;5072656;28;20028;-69
2022/06/08 15:09:17;;;;;;;6.70;2.25;;;;;;;23.83;100.00;99508.06;5054644;28;20033;-68
2022/06/08 15:12:00;;;;;;;4.80;2.30;;;;;;;23.34;100.00;99499.56;5054574;28;20028;-67
2022/06/08 15:14:31;;;;;;;4.38;2.20;;;;;;;23.76;100.00;99504.38;5054476;28;20588;-68
2022/06/08 15:16:57;;;;;;;2.50;2.10;;;;;;;23.87;100.00;99512.00;5054631;28;20402;-67
2022/06/08 15:19:29;;;;;;;3.50;2.20;;;;;;;24.22;100.00;99515.81;5072476;28;20032;-68
2022/06/08 15:21:56;;;;;;;7.18;2.38;;;;;;;24.24;100.00;99488.75;5072335;28;20036;-68
2022/06/08 15:24:24;;;;;;;5.60;2.53;;;;;;;24.70;100.00;99503.50;5072304;28;20074;-68
2022/06/08 15:26:52;;;;;;;4.60;2.25;;;;;;;23.92;100.00;99473.47;5071257;28;20110;-71
2022/06/08 15:29:22;;;;;;;4.90;1.95;;;;;;;24.45;100.00;99502.34;5072139;28;20024;-70
2022/06/08 15:31:48;;;;;;;5.60;2.00;;;;;;;23.98;100.00;99446.13;5071477;28;20035;-69
2022/06/08 15:34:24;;;;;;;2.30;1.83;;;;;;;23.87;100.00;99499.03;5071953;28;20432;-69
2022/06/08 15:36:53;;;;;;;3.15;1.88;;;;;;;23.94;100.00;99453.38;5071709;28;20028;-69
2022/06/08 15:39:22;;;;;;;5.72;2.00;;;;;;;24.07;100.00;99487.69;5054318;28;20074;-69
2022/06/08 15:41:47;;;;;;;4.20;1.80;;;;;;;24.00;100.00;99511.72;5054018;28;20033;-70
2022/06/08 15:44:14;;;;;;;2.13;1.92;;;;;;;23.88;100.00;99484.28;5070721;28;20039;-72
2022/06/08 15:46:43;;;;;;;2.40;2.00;;;;;;;23.93;100.00;99502.84;5054193;28;20063;-72
2022/06/08 15:49:14;;;;;;;3.17;1.75;;;;;;;23.29;100.00;99511.16;5054128;28;20033;-72
2022/06/08 15:51:39;;;;;;;5.30;2.00;;;;;;;23.76;100.00;99513.94;5054217;28;20032;-72
2022/06/08 15:54:12;;;;;;;3.80;2.00;;;;;;;23.32;100.00;99467.75;5072138;28;20036;-71
2022/06/08 15:56:40;;;;;;;4.82;2.05;;;;;;;24.30;100.00;99532.38;5072302;28;20066;-71
2022/06/08 15:59:24;;;;;;;3.42;2.03;;;;;;;23.87;100.00;99490.41;5071810;28;20036;-71
2022/06/08 16:01:50;;;;;;;4.35;2.13;;;;;;;23.81;100.00;99520.34;5053951;28;20107;-71
2022/06/08 16:04:16;;;;;;;3.80;2.10;;;;;;;23.76;100.00;99527.75;5071937;28;20124;-71
2022/06/08 16:06:44;;;;;;;3.03;2.20;;;;;;;23.65;100.00;99475.16;5053925;28;20032;-70
2022/06/08 16:09:10;;;;;;;3.97;2.63;;;;;;;23.10;100.00;99512.88;5054011;28;20032;-73
2022/06/08 16:11:38;;;;;;;4.35;2.40;;;;;;;23.03;100.00;99478.09;5071947;28;20491;-71
2022/06/08 16:14:05;;;;;;;7.40;2.97;;;;;;;23.30;100.00;99517.16;5071979;28;20510;-71
2022/06/08 16:16:30;;;;;;;6.28;2.70;;;;;;;22.76;100.00;99493.44;5071854;28;20036;-70
2022/06/08 16:18:56;;;;;;;6.95;2.60;;;;;;;23.01;100.00;99491.19;5070409;28;20405;-71
2022/06/08 16:21:23;;;;;;;3.92;2.92;;;;;;;22.91;100.00;99490.34;5071286;28;20510;-71
2022/06/08 16:23:49;;;;;;;3.78;2.67;;;;;;;22.54;100.00;99491.00;5071841;28;20152;-70
2022/06/08 16:26:14;;;;;;;4.10;2.72;;;;;;;22.94;100.00;99510.81;5071623;28;20045;-71
2022/06/08 16:28:43;;;;;;;4.50;2.60;;;;;;;22.87;100.00;99485.56;5071792;28;20028;-74
2022/06/08 16:31:09;;;;;;;5.88;2.60;;;;;;;22.77;100.00;99511.44;5071715;28;20490;-70
2022/06/08 16:33:35;;;;;;;4.72;2.72;;;;;;;22.86;100.00;99504.63;5053112;28;20056;-70
2022/06/08 16:36:01;;;;;;;4.50;2.53;;;;;;;22.61;100.00;99497.31;5071502;28;20193;-70
2022/06/08 16:38:27;;;;;;;4.10;2.90;;;;;;;22.64;100.00;99518.63;5052978;28;20029;-71
2022/06/08 16:40:52;;;;;;;4.75;2.90;;;;;;;22.56;100.00;99481.31;5071658;28;20028;-70
2022/06/08 16:43:19;;;;;;;7.07;2.97;;;;;;;22.50;100.00;99498.22;5071197;28;20107;-71
2022/06/08 16:45:44;;;;;;;7.32;2.90;;;;;;;22.58;100.00;99520.94;5053227;28;20049;-70
2022/06/08 16:48:11;;;;;;;4.85;2.70;;;;;;;22.39;100.00;99496.53;5071416;28;20094;-71